<?xml version="1.0" encoding="UTF-8" standalone="yes"?>
<gpx xmlns="http://www.topografix.com/GPX/1/1" xmlns:gpxtrx="http://www.garmin.com/xmlschemas/GpxExtensions/v3" xmlns:rcxx="http://www.routeconverter.de/xmlschemas/RouteCatalogExtensions/1.0" xmlns:xsi="http://www.w3.org/2001/XMLSchema-instance" xmlns:gpxtpx="http://www.garmin.com/xmlschemas/TrackPointExtension/v1" xmlns:gpxx="http://www.garmin.com/xmlschemas/WaypointExtension/v1" xmlns:nmea="http://trekbuddy.net/2009/01/gpx/nmea" creator="Generated by Christian Pesch's RouteConverter. See http://www.routeconverter.com" version="1.1">
    <trk>
        <name>Track 1</name>
        <trkseg>
            <trkpt lon="7.132793068885803" lat="51.058026177157465">
                <ele>104.0</ele>
                <name>Märchenwaldweg 7, 51519 Odenthal, Deutschland</name>
            </trkpt>
            <trkpt lon="7.132980823516846" lat="51.05774969579701">
                <ele>101.0</ele>
                <time>2011-04-09T13:35:56.534Z</time>
                <name>Märchenwaldweg 7, 51519 Odenthal, Deutschland</name>
            </trkpt>
            <trkpt lon="7.133023738861084" lat="51.05770923497165">
                <ele>100.0</ele>
                <time>2011-04-09T13:35:56.534Z</time>
                <name>Märchenwaldweg 7, 51519 Odenthal, Deutschland</name>
            </trkpt>
            <trkpt lon="7.1330612897872925" lat="51.0576519154085">
                <ele>100.0</ele>
                <time>2011-04-09T13:36:01.605Z</time>
                <name>Märchenwaldweg 7, 51519 Odenthal, Deutschland</name>
            </trkpt>
            <trkpt lon="7.133356332778931" lat="51.05754064781868">
                <ele>97.0</ele>
                <time>2011-04-09T13:36:06.677Z</time>
                <name>Märchenwaldweg 7, 51519 Odenthal, Deutschland</name>
            </trkpt>
            <trkpt lon="7.1346598863601685" lat="51.05744623874488">
                <ele>101.0</ele>
                <time>2011-04-09T13:36:06.677Z</time>
                <name>Carl-Mosterts-Straße 1, 51519 Odenthal, Deutschland</name>
            </trkpt>
            <trkpt lon="7.133554816246033" lat="51.05632343035917">
                <ele>96.99492512378804</ele>
                <time>2012-03-25T11:44:51.804Z</time>
                <name>Carl-Mosterts-Straße 1, 51519 Odenthal, Deutschland</name>
            </trkpt>
            <trkpt lon="7.133340239524841" lat="51.05604693883116">
                <ele>95.78735202794472</ele>
                <time>2012-06-15T05:42:27.238Z</time>
                <name>Carl-Mosterts-Straße 1, 51519 Odenthal, Deutschland</name>
            </trkpt>
            <trkpt lon="7.133190035820007" lat="51.055844626911025">
                <ele>95.86212714901957</ele>
                <time>2012-08-13T13:29:54.901Z</time>
                <name>Carl-Mosterts-Straße 1, 51519 Odenthal, Deutschland</name>
            </trkpt>
            <trkpt lon="7.133023738861084" lat="51.05571649557106">
                <ele>97.01611134246737</ele>
                <time>2012-09-26T12:40:34.269Z</time>
                <name>Carl-Mosterts-Straße 1, 51519 Odenthal, Deutschland</name>
            </trkpt>
            <trkpt lon="7.132696509361267" lat="51.05558836387659">
                <ele>97.0</ele>
                <name>Zu den Teichen, 51519 Odenthal, Deutschland</name>
            </trkpt>
            <trkpt lon="7.133742570877075" lat="51.05539279376455">
                <ele>98.0</ele>
                <name>Zu den Teichen, 51519 Odenthal, Deutschland</name>
            </trkpt>
            <trkpt lon="7.134091258049011" lat="51.05519385090655">
                <ele>102.0</ele>
                <name>Zu den Teichen, 51519 Odenthal, Deutschland</name>
            </trkpt>
            <trkpt lon="7.134413123130798" lat="51.05495107202363">
                <ele>106.0</ele>
                <time>2011-06-04T12:15:42.041Z</time>
                <name>Zu den Teichen, 51519 Odenthal, Deutschland</name>
            </trkpt>
            <trkpt lon="7.134777903556824" lat="51.054667828384716">
                <ele>108.0</ele>
                <name>Zu den Teichen, 51519 Odenthal, Deutschland</name>
            </trkpt>
            <trkpt lon="7.135094404220581" lat="51.054205867780446">
                <ele>109.0</ele>
                <name>Zu den Teichen, 51519 Odenthal, Deutschland</name>
            </trkpt>
            <trkpt lon="7.135169506072998" lat="51.054151915876474">
                <ele>109.0</ele>
                <time>2011-04-09T13:09:54.597Z</time>
                <name>Altenberger-Dom-Straße, 51519 Odenthal, Deutschland</name>
            </trkpt>
            <trkpt lon="7.13536262512207" lat="51.05402040784723">
                <ele>111.0</ele>
                <time>2011-04-09T13:10:33.511Z</time>
                <name>Zu den Teichen, 51519 Odenthal, Deutschland</name>
            </trkpt>
            <trkpt lon="7.135550379753113" lat="51.054044011879974">
                <ele>111.0</ele>
                <name>Neschener Straße, 51519 Odenthal, Deutschland</name>
            </trkpt>
            <trkpt lon="7.136194109916687" lat="51.0539799437631">
                <ele>116.0</ele>
                <name>Zu den Teichen, 51519 Odenthal, Deutschland</name>
            </trkpt>
            <trkpt lon="7.1363067626953125" lat="51.054000175809584">
                <ele>117.0</ele>
                <time>2011-04-09T13:27:12.548Z</time>
                <name>Neschener Straße, 51519 Odenthal, Deutschland</name>
            </trkpt>
            <trkpt lon="7.13686466217041" lat="51.05386529533269">
                <ele>120.0</ele>
                <time>2011-04-09T13:27:21.848Z</time>
                <name>Zu den Teichen, 51519 Odenthal, Deutschland</name>
            </trkpt>
            <trkpt lon="7.137014865875244" lat="51.05390913153079">
                <ele>121.0</ele>
                <time>2011-04-09T13:27:31.616Z</time>
                <name>Zu den Teichen, 51519 Odenthal, Deutschland</name>
            </trkpt>
            <trkpt lon="7.137336730957031" lat="51.05394622366598">
                <ele>124.0</ele>
                <time>2011-04-09T13:28:00.150Z</time>
                <name>Bülsberger Weg 10, 51519 Odenthal, Deutschland</name>
            </trkpt>
            <trkpt lon="7.13762640953064" lat="51.05392261958337">
                <ele>125.0</ele>
                <time>2011-04-09T13:28:35.209Z</time>
                <name>Bülsberger Weg 10, 51519 Odenthal, Deutschland</name>
            </trkpt>
            <trkpt lon="7.137932181358337" lat="51.05387203936588">
                <ele>127.0</ele>
                <name>Bülsberger Weg 10, 51519 Odenthal, Deutschland</name>
            </trkpt>
            <trkpt lon="7.138082385063171" lat="51.05382820313269">
                <ele>127.0</ele>
                <name>Bülsberger Weg 10, 51519 Odenthal, Deutschland</name>
            </trkpt>
            <trkpt lon="7.1380555629730225" lat="51.053514604254204">
                <ele>121.0</ele>
                <time>2011-04-09T13:11:40.454Z</time>
                <name>Bülsberger Weg5</name>
            </trkpt>
            <trkpt lon="7.137921452522278" lat="51.05320437531711">
                <ele>121.0</ele>
                <name>Bülsberger Weg6</name>
            </trkpt>
            <trkpt lon="7.138018012046814" lat="51.053005423057186">
                <ele>125.0</ele>
                <name>Bülsberger Weg7</name>
            </trkpt>
            <trkpt lon="7.138302326202393" lat="51.05279298156482">
                <ele>129.0</ele>
                <name>Bülsberger Weg 10, 51519 Odenthal, Deutschland</name>
            </trkpt>
            <trkpt lon="7.138849496841431" lat="51.05259402753745">
                <ele>129.0</ele>
                <name>Bülsberger Weg 9, 51519 Odenthal, Deutschland</name>
            </trkpt>
            <trkpt lon="7.139241099357605" lat="51.05245239872602">
                <ele>129.0</ele>
                <time>2011-06-04T11:42:19.578Z</time>
                <name>Bülsberger Weg 9, 51519 Odenthal, Deutschland</name>
            </trkpt>
            <trkpt lon="7.139557600021362" lat="51.05240856114899">
                <ele>131.0</ele>
                <name>Bülsberger Weg 9, 51519 Odenthal, Deutschland</name>
            </trkpt>
            <trkpt lon="7.140421271324158" lat="51.052577166987405">
                <ele>133.0</ele>
                <time>2011-04-09T13:12:55.263Z</time>
                <name>Bülsberger Weg 9, 51519 Odenthal, Deutschland</name>
            </trkpt>
            <trkpt lon="7.141547799110413" lat="51.0528064699425">
                <ele>132.0</ele>
                <time>2011-04-09T13:13:53.607Z</time>
                <name>Neschener Straße, 51519 Odenthal, Deutschland</name>
            </trkpt>
            <trkpt lon="7.142540216445923" lat="51.05313693396882">
                <ele>129.0</ele>
                <name>Neschener Straße, 51519 Odenthal, Deutschland</name>
            </trkpt>
            <trkpt lon="7.143586277961731" lat="51.05347413972808">
                <ele>131.0</ele>
                <name>Neschener Straße, 51519 Odenthal, Deutschland</name>
            </trkpt>
            <trkpt lon="7.144766449928284" lat="51.053764134717206">
                <ele>135.0</ele>
                <name>Neschener Straße, 51519 Odenthal, Deutschland</name>
            </trkpt>
            <trkpt lon="7.145281434059143" lat="51.05387541138209">
                <ele>139.0</ele>
                <time>2011-04-09T13:15:18.442Z</time>
                <name>Neschener Straße, 51519 Odenthal, Deutschland</name>
            </trkpt>
            <trkpt lon="7.145951986312866" lat="51.054202495788275">
                <ele>139.0</ele>
                <time>2011-04-09T13:30:24.743Z</time>
                <name>Neschener Straße, 51519 Odenthal, Deutschland</name>
            </trkpt>
            <trkpt lon="7.146713733673096" lat="51.054607133093846">
                <ele>141.0</ele>
                <name>Neschener Straße, 51519 Odenthal, Deutschland</name>
            </trkpt>
            <trkpt lon="7.146810293197632" lat="51.054661084467455">
                <ele>141.0</ele>
                <time>2011-04-09T13:29:49.241Z</time>
                <name>Neschener Straße, 51519 Odenthal, Deutschland</name>
            </trkpt>
            <trkpt lon="7.147459387779236" lat="51.054920724573755">
                <ele>148.0</ele>
                <name>Neschener Straße, 51519 Odenthal, Deutschland</name>
            </trkpt>
            <trkpt lon="7.148006558418274" lat="51.055072461624185">
                <ele>151.0</ele>
                <time>2011-04-09T13:15:51.774Z</time>
                <name>Neschener Straße, 51519 Odenthal, Deutschland</name>
            </trkpt>
            <trkpt lon="7.148585915565491" lat="51.055146644001226">
                <ele>153.0</ele>
                <time>2011-04-09T13:15:56.751Z</time>
                <name>Neschener Straße 38, 51519 Odenthal, Deutschland</name>
            </trkpt>
            <trkpt lon="7.149143815040588" lat="51.05508257740988">
                <ele>153.0</ele>
                <name>Neschener Straße 38, 51519 Odenthal, Deutschland</name>
            </trkpt>
            <trkpt lon="7.150018215179443" lat="51.054897120987874">
                <ele>152.0</ele>
                <name>Neschener Straße 38, 51519 Odenthal, Deutschland</name>
            </trkpt>
            <trkpt lon="7.150549292564392" lat="51.05467457230103">
                <ele>150.0</ele>
                <name>Neschener Straße 38, 51519 Odenthal, Deutschland</name>
            </trkpt>
            <trkpt lon="7.150967717170715" lat="51.054350863210864">
                <ele>153.0</ele>
                <name>Neschener Straße 38, 51519 Odenthal, Deutschland</name>
            </trkpt>
            <trkpt lon="7.151525616645813" lat="51.05413168389628">
                <ele>152.0</ele>
                <name>Neschener Straße 38, 51519 Odenthal, Deutschland</name>
            </trkpt>
            <trkpt lon="7.152008414268494" lat="51.053592161163756">
                <ele>156.0</ele>
                <name>Neschener Straße 38, 51519 Odenthal, Deutschland</name>
            </trkpt>
            <trkpt lon="7.152239084243774" lat="51.05318751498924">
                <ele>157.0</ele>
                <name>Neschener Straße 38, 51519 Odenthal, Deutschland</name>
            </trkpt>
            <trkpt lon="7.152491211891174" lat="51.05287728386095">
                <ele>155.0</ele>
                <name>Neschener Straße 38, 51519 Odenthal, Deutschland</name>
            </trkpt>
            <trkpt lon="7.152995467185974" lat="51.05275251640816">
                <ele>154.0</ele>
                <name>Neschener Straße 38, 51519 Odenthal, Deutschland</name>
            </trkpt>
            <trkpt lon="7.1533602476119995" lat="51.05266484178077">
                <ele>152.0</ele>
                <time>2011-04-09T13:18:21.086Z</time>
                <name>Neschener Straße 38, 51519 Odenthal, Deutschland</name>
            </trkpt>
            <trkpt lon="7.15359628200531" lat="51.0526075159731">
                <ele>153.0</ele>
                <time>2011-04-09T13:18:29.110Z</time>
                <name>Neschener Straße 38, 51519 Odenthal, Deutschland</name>
            </trkpt>
            <trkpt lon="7.1543580293655396" lat="51.05242879388198">
                <ele>155.0</ele>
                <name>Neschener Straße 38, 51519 Odenthal, Deutschland</name>
            </trkpt>
            <trkpt lon="7.153623104095459" lat="51.05259739964674">
                <ele>153.0</ele>
                <time>2011-04-09T13:18:29.110Z</time>
                <name>Neschener Straße 38, 51519 Odenthal, Deutschland</name>
            </trkpt>
            <trkpt lon="7.1533602476119995" lat="51.052661469676394">
                <ele>152.0</ele>
                <time>2011-04-09T13:18:21.086Z</time>
                <name>Neschener Straße 38, 51519 Odenthal, Deutschland</name>
            </trkpt>
            <trkpt lon="7.152995467185974" lat="51.05275251640816">
                <ele>154.0</ele>
                <name>Neschener Straße 38, 51519 Odenthal, Deutschland</name>
            </trkpt>
            <trkpt lon="7.152491211891174" lat="51.05287728386095">
                <ele>155.0</ele>
                <name>Neschener Straße 38, 51519 Odenthal, Deutschland</name>
            </trkpt>
            <trkpt lon="7.152222990989685" lat="51.0531908870553">
                <ele>157.0</ele>
                <name>Neschener Straße 38, 51519 Odenthal, Deutschland</name>
            </trkpt>
            <trkpt lon="7.152003049850464" lat="51.053602277272816">
                <ele>156.0</ele>
                <name>Neschener Straße 38, 51519 Odenthal, Deutschland</name>
            </trkpt>
            <trkpt lon="7.151525616645813" lat="51.05413168389628">
                <ele>152.0</ele>
                <name>Neschener Straße 38, 51519 Odenthal, Deutschland</name>
            </trkpt>
            <trkpt lon="7.150967717170715" lat="51.054350863210864">
                <ele>153.0</ele>
                <name>Neschener Straße 38, 51519 Odenthal, Deutschland</name>
            </trkpt>
            <trkpt lon="7.150951623916626" lat="51.05436097915418">
                <ele>153.0</ele>
                <time>2011-06-04T11:50:14.796Z</time>
                <name>Neschener Straße 38, 51519 Odenthal, Deutschland</name>
            </trkpt>
            <trkpt lon="7.150999903678894" lat="51.05445539451861">
                <ele>151.0</ele>
                <time>2011-06-04T11:50:23.044Z</time>
                <name>Neschener Straße 38, 51519 Odenthal, Deutschland</name>
            </trkpt>
            <trkpt lon="7.151128649711609" lat="51.05470154795641">
                <ele>147.0</ele>
                <time>2011-06-04T11:51:13.567Z</time>
                <name>Neschener Straße 38, 51519 Odenthal, Deutschland</name>
            </trkpt>
            <trkpt lon="7.151193022727966" lat="51.05478247482822">
                <ele>145.0</ele>
                <time>2011-06-04T11:54:51.556Z</time>
                <name>Neschener Straße 38, 51519 Odenthal, Deutschland</name>
            </trkpt>
            <trkpt lon="7.151455879211426" lat="51.05511629667955">
                <ele>143.0</ele>
                <time>2011-06-04T12:24:53.552Z</time>
                <name>Neschener Straße 38, 51519 Odenthal, Deutschland</name>
            </trkpt>
            <trkpt lon="7.151080369949341" lat="51.05551081031031">
                <ele>145.0</ele>
                <time>2011-06-04T14:23:47.589Z</time>
                <name>Neschener Straße 38, 51519 Odenthal, Deutschland</name>
            </trkpt>
            <trkpt lon="7.150323987007141" lat="51.05585474252802">
                <ele>148.0</ele>
                <time>2011-06-04T21:04:23.516Z</time>
                <name>Neschener Straße 38, 51519 Odenthal, Deutschland</name>
            </trkpt>
            <trkpt lon="7.1496158838272095" lat="51.05605705440396">
                <ele>145.0</ele>
                <time>2011-06-05T06:26:09.337Z</time>
                <name>Neschener Straße 38, 51519 Odenthal, Deutschland</name>
            </trkpt>
            <trkpt lon="7.149256467819214" lat="51.056262737238335">
                <ele>146.0</ele>
                <time>2011-06-06T00:19:54.552Z</time>
                <name>Neschener Straße 2, 51519 Odenthal, Deutschland</name>
            </trkpt>
            <trkpt lon="7.14934766292572" lat="51.05678199803411">
                <ele>153.0</ele>
                <time>2011-06-07T01:07:16.647Z</time>
                <name>Neschener Straße 2, 51519 Odenthal, Deutschland</name>
            </trkpt>
            <trkpt lon="7.149444222450256" lat="51.05698093406893">
                <ele>158.0</ele>
                <time>2011-06-07T18:09:59.576Z</time>
                <name>Neschener Straße 2, 51519 Odenthal, Deutschland</name>
            </trkpt>
            <trkpt lon="7.150045037269592" lat="51.0571292925893">
                <ele>163.0</ele>
                <time>2011-06-09T07:08:50.244Z</time>
                <name>Neschener Straße 2, 51519 Odenthal, Deutschland</name>
            </trkpt>
            <trkpt lon="7.150468826293945" lat="51.05726079178953">
                <ele>168.0</ele>
                <time>2011-06-11T19:00:10.156Z</time>
                <name>Neschener Straße 2, 51519 Odenthal, Deutschland</name>
            </trkpt>
            <trkpt lon="7.150522470474698" lat="51.05736691956166">
                <ele>168.10456213785804</ele>
                <time>2011-06-12T17:23:51.400Z</time>
                <name>Neschener Straße 2, 51519 Odenthal, Deutschland</name>
            </trkpt>
            <trkpt lon="7.150254249572754" lat="51.0574293799615">
                <ele>166.0</ele>
                <time>2011-06-18T01:55:34.299Z</time>
                <name>Neschener Straße 2, 51519 Odenthal, Deutschland</name>
            </trkpt>
            <trkpt lon="7.149417400360107" lat="51.057355201241435">
                <ele>164.0</ele>
                <time>2011-07-07T05:51:33.690Z</time>
                <name>Neschener Straße 2, 51519 Odenthal, Deutschland</name>
            </trkpt>
            <trkpt lon="7.148977518081665" lat="51.05726079178953">
                <ele>161.0</ele>
                <time>2011-09-08T16:14:15.517Z</time>
                <name>Neschener Straße 2, 51519 Odenthal, Deutschland</name>
            </trkpt>
            <trkpt lon="7.148451805114746" lat="51.057018023743545">
                <ele>158.0</ele>
                <time>2012-03-22T10:49:34.064Z</time>
                <name>Neschener Straße 2, 51519 Odenthal, Deutschland</name>
            </trkpt>
            <trkpt lon="7.148038744926453" lat="51.05666061291505">
                <ele>153.0</ele>
                <time>2013-03-05T09:19:17.029Z</time>
                <name>Neschener Straße, 51519 Odenthal, Deutschland</name>
            </trkpt>
            <trkpt lon="7.147561311721802" lat="51.056444816362145">
                <ele>152.0</ele>
                <time>2015-06-03T20:07:48.668Z</time>
                <name>Neschener Straße, 51519 Odenthal, Deutschland</name>
            </trkpt>
            <trkpt lon="7.14709997177124" lat="51.056107632234834">
                <ele>150.0</ele>
                <time>2019-03-10T18:45:53.685Z</time>
                <name>Neschener Straße, 51519 Odenthal, Deutschland</name>
            </trkpt>
            <trkpt lon="7.146660089492798" lat="51.055733354978145">
                <ele>145.0</ele>
                <time>2023-05-16T22:07:06.914Z</time>
                <name>Neschener Straße, 51519 Odenthal, Deutschland</name>
            </trkpt>
            <trkpt lon="7.146204113960266" lat="51.05556813252398">
                <ele>145.0</ele>
                <time>2034-07-06T13:23:57.393Z</time>
                <name>Neschener Straße, 51519 Odenthal, Deutschland</name>
            </trkpt>
            <trkpt lon="7.145764231681824" lat="51.05543325661411">
                <ele>144.0</ele>
                <time>2065-04-11T10:33:46.688Z</time>
                <name>Neschener Straße, 51519 Odenthal, Deutschland</name>
            </trkpt>
            <trkpt lon="7.145522832870483" lat="51.05519722282653">
                <ele>139.0</ele>
                <time>2140-12-04T05:16:25.081Z</time>
                <name>Neschener Straße, 51519 Odenthal, Deutschland</name>
            </trkpt>
            <trkpt lon="7.145190238952637" lat="51.054954443961265">
                <ele>136.0</ele>
                <time>2294-11-29T04:31:19.141Z</time>
                <name>Neschener Straße, 51519 Odenthal, Deutschland</name>
            </trkpt>
            <trkpt lon="7.144841551780701" lat="51.054792590677266">
                <ele>138.0</ele>
                <time>2811-12-10T23:39:32.672Z</time>
                <name>Neschener Straße, 51519 Odenthal, Deutschland</name>
            </trkpt>
            <trkpt lon="7.144337296485901" lat="51.054580157383484">
                <ele>137.0</ele>
                <time>4406-12-13T14:42:57.709Z</time>
                <name>Neschener Straße, 51519 Odenthal, Deutschland</name>
            </trkpt>
            <trkpt lon="7.143575549125671" lat="51.0544655104391">
                <ele>138.0</ele>
                <time>10224-01-21T22:14:54.795Z</time>
                <name>Neschener Straße, 51519 Odenthal, Deutschland</name>
            </trkpt>
            <trkpt lon="7.142642140388489" lat="51.05412493990093">
                <ele>137.0</ele>
                <time>27773-01-19T16:14:16.365Z</time>
                <name>Neschener Straße, 51519 Odenthal, Deutschland</name>
            </trkpt>
            <trkpt lon="7.140946984291077" lat="51.05352134833843">
                <ele>131.0</ele>
                <time>57836-12-20T06:43:21.769Z</time>
                <name>Neschener Straße, 51519 Odenthal, Deutschland</name>
            </trkpt>
            <trkpt lon="7.139938473701477" lat="51.05331902538378">
                <ele>124.0</ele>
                <time>79013-01-30T22:09:29.194Z</time>
                <name>Neschener Straße, 51519 Odenthal, Deutschland</name>
            </trkpt>
            <trkpt lon="7.139187455177307" lat="51.05348425586292">
                <ele>125.0</ele>
                <time>94994-08-20T07:31:05.292Z</time>
                <name>Neschener Straße, 51519 Odenthal, Deutschland</name>
            </trkpt>
            <trkpt lon="7.138656377792358" lat="51.05363262558672">
                <ele>126.0</ele>
                <time>97235-06-26T04:12:10.290Z</time>
                <name>Bülsberger Weg 10, 51519 Odenthal, Deutschland</name>
            </trkpt>
            <trkpt lon="7.138146758079529" lat="51.05382483111302">
                <ele>127.0</ele>
                <time>99568-02-11T10:49:23.027Z</time>
                <name>Bülsberger Weg9</name>
            </trkpt>
            <trkpt lon="7.137760519981384" lat="51.053929363608205">
                <ele>126.0</ele>
                <time>104273-07-28T20:01:36.102Z</time>
                <name>Bülsberger Weg10</name>
            </trkpt>
            <trkpt lon="7.13737428188324" lat="51.05396645572719">
                <ele>124.0</ele>
                <time>114662-05-01T12:43:46.378Z</time>
                <name>Bülsberger Weg11</name>
            </trkpt>
            <trkpt lon="7.137009501457214" lat="51.053929363608205">
                <ele>121.0</ele>
                <time>129169-04-05T08:50:52.019Z</time>
                <name>Bülsberger Weg 10, 51519 Odenthal, Deutschland</name>
            </trkpt>
            <trkpt lon="7.136891484260559" lat="51.053899015488746">
                <ele>121.0</ele>
                <time>136121-09-22T01:16:14.689Z</time>
                <name>Zu den Teichen, 51519 Odenthal, Deutschland</name>
            </trkpt>
            <trkpt lon="7.13637113571167" lat="51.054017035841554">
                <ele>117.0</ele>
                <time>140097-04-09T10:13:27.285Z</time>
                <name>Neschener Straße, 51519 Odenthal, Deutschland</name>
            </trkpt>
            <trkpt lon="7.1363067626953125" lat="51.054000175809584">
                <ele>117.0</ele>
                <time>2011-04-09T13:27:12.548Z</time>
                <name>Neschener Straße, 51519 Odenthal, Deutschland</name>
            </trkpt>
            <trkpt lon="7.136194109916687" lat="51.0539799437631">
                <ele>116.0</ele>
                <name>Zu den Teichen, 51519 Odenthal, Deutschland</name>
            </trkpt>
            <trkpt lon="7.1355825662612915" lat="51.05403389586742">
                <ele>111.0</ele>
                <name>Neschener Straße, 51519 Odenthal, Deutschland</name>
            </trkpt>
            <trkpt lon="7.13536262512207" lat="51.05402040784723">
                <ele>111.0</ele>
                <time>2011-04-09T13:10:33.511Z</time>
                <name>Zu den Teichen, 51519 Odenthal, Deutschland</name>
            </trkpt>
            <trkpt lon="7.135169506072998" lat="51.054151915876474">
                <ele>109.0</ele>
                <time>2011-04-09T13:09:54.597Z</time>
                <name>Altenberger-Dom-Straße, 51519 Odenthal, Deutschland</name>
            </trkpt>
            <trkpt lon="7.135094404220581" lat="51.054205867780446">
                <ele>109.0</ele>
                <name>Zu den Teichen, 51519 Odenthal, Deutschland</name>
            </trkpt>
            <trkpt lon="7.134767174720764" lat="51.054684688173616">
                <ele>108.0</ele>
                <name>Zu den Teichen, 51519 Odenthal, Deutschland</name>
            </trkpt>
            <trkpt lon="7.134461402893066" lat="51.054920724573755">
                <ele>106.0</ele>
                <time>2011-06-04T12:15:42.041Z</time>
                <name>Zu den Teichen, 51519 Odenthal, Deutschland</name>
            </trkpt>
            <trkpt lon="7.134091258049011" lat="51.05517699130303">
                <ele>102.0</ele>
                <name>Zu den Teichen, 51519 Odenthal, Deutschland</name>
            </trkpt>
            <trkpt lon="7.133737206459045" lat="51.05538267804661">
                <ele>98.0</ele>
                <name>Zu den Teichen, 51519 Odenthal, Deutschland</name>
            </trkpt>
            <trkpt lon="7.132728695869446" lat="51.05559510765882">
                <ele>97.0</ele>
                <name>Altenberger Dom1</name>
            </trkpt>
            <trkpt lon="7.13287353515625" lat="51.05565917354105">
                <ele>97.60520655529255</ele>
                <time>2012-03-25T11:43:51.621Z</time>
                <name>Carl-Mosterts-Straße 1, 51519 Odenthal, Deutschland</name>
            </trkpt>
            <trkpt lon="7.133018374443054" lat="51.05571986745298">
                <ele>97.0031691061457</ele>
                <time>2012-03-25T11:44:18.134Z</time>
                <name>Carl-Mosterts-Straße 1, 51519 Odenthal, Deutschland</name>
            </trkpt>
            <trkpt lon="7.1331846714019775" lat="51.055841255038196">
                <ele>95.8696863302092</ele>
                <time>2012-03-25T11:44:56.922Z</time>
                <name>Carl-Mosterts-Straße 1, 51519 Odenthal, Deutschland</name>
            </trkpt>
            <trkpt lon="7.133393883705139" lat="51.05611437594144">
                <ele>96.10338809684033</ele>
                <time>2012-03-25T11:46:10.274Z</time>
                <name>Carl-Mosterts-Straße 1, 51519 Odenthal, Deutschland</name>
            </trkpt>
            <trkpt lon="7.133538722991943" lat="51.056306571166914">
                <ele>96.91379041542899</ele>
                <time>2012-03-25T11:47:01.734Z</time>
                <name>Carl-Mosterts-Straße 1, 51519 Odenthal, Deutschland</name>
            </trkpt>
            <trkpt lon="7.1346598863601685" lat="51.05744623874488">
                <ele>101.0</ele>
                <time>2011-04-09T13:36:06.677Z</time>
                <name>P Märchenwald6</name>
            </trkpt>
            <trkpt lon="7.133356332778931" lat="51.05754064781868">
                <ele>97.0</ele>
                <time>2011-04-09T13:36:06.677Z</time>
                <name>P Märchenwald7</name>
            </trkpt>
            <trkpt lon="7.1330612897872925" lat="51.0576519154085">
                <ele>100.0</ele>
                <time>2011-04-09T13:36:01.605Z</time>
                <name>Märchenwaldweg 7, 51519 Odenthal, Deutschland</name>
            </trkpt>
            <trkpt lon="7.133023738861084" lat="51.05770923497165">
                <ele>100.0</ele>
                <time>2011-04-09T13:35:56.534Z</time>
                <name>Märchenwaldweg 7, 51519 Odenthal, Deutschland</name>
            </trkpt>
            <trkpt lon="7.132980823516846" lat="51.05774969579701">
                <ele>101.0</ele>
                <time>2011-04-09T13:35:56.534Z</time>
                <name>Märchenwaldweg 7, 51519 Odenthal, Deutschland</name>
            </trkpt>
        </trkseg>
    </trk>
</gpx>
